Flight Track Log - Related Links

Times and Time Zones

All times are in EDT time to prevent confusion due to time zone crossing. See the UAL495 flight status page for this flight to view local times or setup timezone preferences in your user account.

Time Position Orientation Groundspeed Altitude Reporting Facility
EDT Latitude Longitude Course Direction KTS MPH feet Rate Location/Type
Tue 12:40:50 PM 39.8667 -104.5500 96° East 217 250 7,500  Level Denver TRACON
Tue 12:41:56 PM 39.8333 -104.4667 117° Southeast 260 299 9,700 1,619 Climbing Denver TRACON
Tue 12:42:00 PM 39.7983 -104.1972 101° East  Level FlightAware Approximate
Tue 12:42:56 PM 39.8000 -104.3667 113° Southeast 333 383 10,900  Level Denver TRACON
Tue 12:43:00 PM 39.7719 -104.0427 105° East  Level FlightAware Approximate
Tue 12:43:56 PM 39.8000 -104.2333 90° East 391 450 12,800  Level Denver TRACON
Tue 12:44:00 PM 39.7587 -103.8861 99° East  Level FlightAware Approximate
Tue 12:44:50 PM 39.7833 -104.1000 99° East 409 471 14,900  Level Denver TRACON
Tue 12:45:00 PM 39.7333 -103.7322 90° East  Level FlightAware Approximate
Tue 12:45:11 PM 39.7769 -104.0486 99° East 406 467 15,700  Level Denver Center
Tue 12:46:00 PM 39.7250 -103.5745 96° East  Level FlightAware Approximate
Tue 12:46:13 PM 39.7600 -103.8858 98° East 423 487 18,000  Level Denver Center
Tue 12:47:15 PM 39.7408 -103.7281 99° East 434 499 20,100 1,728 Climbing Denver Center
Tue 12:48:18 PM 39.7294 -103.5733 95° East 451 519 21,600 1,680 Climbing Denver Center
Tue 12:49:20 PM 39.7131 -103.3864 96° East 477 549 23,600 2,081 Climbing Denver Center
Tue 12:50:22 PM 39.6981 -103.1950 96° East 477 549 25,900 1,645 Climbing Denver Center
Tue 12:51:24 PM 39.6847 -103.0264 96° East 488 562 27,000 1,210 Climbing Denver Center
Tue 12:52:26 PM 39.6706 -102.8547 96° East 496 571 28,400 1,500 Climbing Denver Center
Tue 12:53:28 PM 39.6533 -102.6547 96° East 500 575 30,100 1,500 Climbing Denver Center
Tue 12:54:30 PM 39.6367 -102.4794 97° East 507 583 31,500 1,355 Climbing Denver Center
Tue 12:55:32 PM 39.6189 -102.2789 97° East 506 582 32,900 726 Climbing Denver Center
Tue 12:56:34 PM 39.6036 -102.1050 96° East 507 583 33,000 48 Climbing Denver Center
Tue 12:57:36 PM 39.5847 -101.8992 97° East 513 590 33,000  Level Denver Center
Tue 12:58:38 PM 39.5714 -101.7258 96° East 508 585 33,000  Level Denver Center
Tue 12:59:40 PM 39.5553 -101.5286 96° East 497 572 33,000 484 Level Denver Center
Tue 01:00:42 PM 39.5342 -101.3575 99° East 503 579 34,000 968 Climbing Denver Center
Tue 01:01:44 PM 39.4881 -101.1667 107° East 500 575 35,000 484 Climbing Denver Center
Tue 01:02:46 PM 39.4489 -101.0044 107° East 497 572 35,000  Level Denver Center
Tue 01:03:48 PM 39.4028 -100.8169 108° East 493 567 35,000  Level Denver Center
Tue 01:04:51 PM 39.3644 -100.6569 107° East 489 563 35,000  Level Denver Center
Tue 01:05:53 PM 39.3183 -100.4686 108° East 493 567 35,000  Level Denver Center
Tue 01:06:55 PM 39.2794 -100.3089 107° East 491 565 35,000  Level Denver Center
Tue 01:07:57 PM 39.2714 -100.1175 93° East 481 554 35,000  Level Denver Center
Tue 01:08:59 PM 39.2906 -99.9508 81° East 488 562 35,000  Level Denver Center
Tue 01:10:01 PM 39.3128 -99.7569 82° East 491 565 35,000  Level Denver Center
Tue 01:11:03 PM 39.3317 -99.5917 82° East 489 563 35,000  Level Denver Center
Tue 01:12:05 PM 39.3528 -99.3967 82° East 490 564 35,000  Level Denver Center
Tue 01:13:07 PM 39.3711 -99.2306 82° East 490 564 35,000  Level Denver Center
Tue 01:14:09 PM 39.3917 -99.0361 82° East 489 563 35,000  Level Denver Center
Tue 01:15:11 PM 39.4103 -98.8694 82° East 490 564 35,000  Level Denver Center
Tue 01:16:13 PM 39.4283 -98.6961 82° East 489 563 35,000  Level Denver Center
Tue 01:17:56 PM 39.4608 -98.3797 82° East 491 565 35,000  Level Kansas City Center
Tue 01:18:17 PM 39.4683 -98.3128 82° East 490 564 35,000  Level Denver Center
Tue 01:19:19 PM 39.4853 -98.1381 83° East 490 564 35,000  Level Denver Center
Tue 01:20:00 PM 39.4958 -98.0417 82° East 491 565 35,000  Level Kansas City Center
Tue 01:21:02 PM 39.5081 -97.8567 85° East 489 563 35,000  Level Kansas City Center
Tue 01:22:04 PM 39.5153 -97.6831 87° East 486 559 35,000  Level Kansas City Center
Tue 01:23:06 PM 39.5244 -97.4717 87° East 489 563 35,000  Level Kansas City Center
Tue 01:24:08 PM 39.5333 -97.2961 86° East 489 563 35,000  Level Kansas City Center
Tue 01:25:10 PM 39.5392 -97.1297 87° East 487 560 35,000  Level Kansas City Center
Tue 01:26:12 PM 39.5464 -96.9550 87° East 486 559 35,000  Level Kansas City Center
Tue 01:27:14 PM 39.5533 -96.7703 87° East 493 567 35,000  Level Kansas City Center
Tue 01:28:16 PM 39.5606 -96.5958 87° East 487 560 35,000  Level Kansas City Center
Tue 01:29:18 PM 39.5672 -96.3903 88° East 489 563 35,000  Level Kansas City Center
Tue 01:30:20 PM 39.5731 -96.2150 87° East 488 562 35,000  Level Kansas City Center
Tue 01:31:22 PM 39.5797 -96.0414 87° East 484 557 35,000  Level Kansas City Center
Tue 01:32:24 PM 39.5839 -95.8739 88° East 483 556 35,000  Level Kansas City Center
Tue 01:33:26 PM 39.5908 -95.6775 87° East 485 558 35,000  Level Kansas City Center
Tue 01:34:28 PM 39.5953 -95.5097 88° East 485 558 35,000  Level Kansas City Center
Tue 01:35:30 PM 39.6003 -95.3144 88° East 482 555 35,000  Level Kansas City Center
Tue 01:36:32 PM 39.6047 -95.1464 88° East 483 556 35,000  Level Kansas City Center
Tue 01:37:34 PM 39.6083 -94.9525 89° East 478 550 35,000  Level Kansas City Center
Tue 01:38:36 PM 39.6075 -94.7878 90° East 476 548 35,000  Level Kansas City Center
Tue 01:39:38 PM 39.6025 -94.6217 92° East 479 551 35,000  Level Kansas City Center
Tue 01:40:40 PM 39.5975 -94.4286 92° East 478 550 35,000  Level Kansas City Center
Tue 01:41:42 PM 39.5917 -94.2644 93° East 476 548 35,000  Level Kansas City Center
Tue 01:42:44 PM 39.5861 -94.0728 92° East 476 548 35,000  Level Kansas City Center
Tue 01:43:46 PM 39.5808 -93.9094 92° East 475 547 35,000  Level Kansas City Center
Tue 01:44:48 PM 39.5733 -93.7306 93° East 474 545 35,000  Level Kansas City Center
Tue 01:45:50 PM 39.5678 -93.5617 92° East 475 547 35,000  Level Kansas City Center
Tue 01:46:52 PM 39.5619 -93.3928 93° East 475 547 35,000  Level Kansas City Center
Tue 01:47:55 PM 39.5550 -93.1953 93° East 469 540 35,000  Level Kansas City Center
Tue 01:48:57 PM 39.5481 -93.0281 93° East 470 541 35,000  Level Kansas City Center
Tue 01:49:59 PM 39.5400 -92.8592 93° East 473 544 35,000  Level Kansas City Center
Tue 01:51:01 PM 39.5328 -92.6917 93° East 473 544 35,000  Level Kansas City Center
Tue 01:52:03 PM 39.5233 -92.4939 93° East 469 540 35,000  Level Kansas City Center
Tue 01:53:05 PM 39.5156 -92.3253 93° East 470 541 35,000 -387 Level Kansas City Center
Tue 01:54:07 PM 39.5067 -92.1594 94° East 470 541 34,200 -1,548 Descending Kansas City Center
Tue 01:55:09 PM 39.4989 -91.9972 94° East 463 533 31,800 -1,548 Descending Kansas City Center
Tue 01:56:11 PM 39.4875 -91.8328 95° East 463 533 31,000 -387 Descending Kansas City Center
Tue 01:57:13 PM 39.4736 -91.6372 95° East 466 536 31,000  Level Kansas City Center
Tue 01:58:15 PM 39.4619 -91.4669 95° East 472 543 31,000  Level Kansas City Center
Tue 01:59:17 PM 39.4508 -91.2997 95° East 470 541 31,000  Level Kansas City Center
Tue 02:00:19 PM 39.4378 -91.1336 96° East 467 537 31,000  Level Kansas City Center
Tue 02:01:21 PM 39.4250 -90.9681 96° East 464 534 31,000  Level Kansas City Center
Tue 02:02:23 PM 39.4072 -90.8067 98° East 458 527 31,000  Level Kansas City Center
Tue 02:03:25 PM 39.3800 -90.6119 100° East 458 527 31,000  Level Kansas City Center
Tue 02:04:27 PM 39.3589 -90.4494 99° East 457 526 31,000  Level Kansas City Center
Tue 02:05:29 PM 39.3364 -90.2861 100° East 458 527 31,000  Level Kansas City Center
Tue 02:06:31 PM 39.3147 -90.1222 100° East 460 529 31,000  Level Kansas City Center
Tue 02:07:33 PM 39.2897 -89.9550 101° East 467 537 31,000  Level Kansas City Center
Tue 02:08:35 PM 39.2667 -89.7861 100° East 474 545 31,000  Level Kansas City Center
Tue 02:09:37 PM 39.2431 -89.6214 100° East 470 541 31,000  Level Kansas City Center
Tue 02:10:39 PM 39.2147 -89.4242 100° East 467 537 31,000  Level Kansas City Center
Tue 02:11:41 PM 39.1914 -89.2614 100° East 464 534 31,000  Level Kansas City Center
Tue 02:12:43 PM 39.1678 -89.1017 101° East 457 526 31,000  Level Kansas City Center
Tue 02:13:45 PM 39.1442 -88.9411 101° East 456 525 31,000  Level Kansas City Center
Tue 02:14:47 PM 39.1244 -88.7836 99° East 451 519 31,000  Level Kansas City Center
Tue 02:15:50 PM 39.0994 -88.6239 101° East 454 522 31,000  Level Kansas City Center
Tue 02:16:52 PM 39.0736 -88.4489 101° East 457 526 31,000  Level Kansas City Center
Tue 02:17:37 PM 39.0511 -88.3214 103° East 457 526 31,000  Level Indianapolis Center
Tue 02:18:39 PM 39.0253 -88.1600 102° East 459 528 31,000  Level Indianapolis Center
Tue 02:19:40 PM 39.0017 -88.0008 101° East 455 524 31,000  Level Indianapolis Center
Tue 02:20:42 PM 38.9858 -87.8456 97° East 442 509 31,000  Level Indianapolis Center
Tue 02:21:44 PM 38.9703 -87.6892 97° East 439 505 31,000  Level Indianapolis Center
Tue 02:22:46 PM 38.9394 -87.5083 102° East 433 498 31,000  Level Indianapolis Center
Tue 02:23:48 PM 38.8481 -87.4028 138° Southeast 447 514 31,000  Level Indianapolis Center
Tue 02:24:49 PM 38.7389 -87.3244 151° Southeast 447 514 31,000  Level Indianapolis Center
Tue 02:25:51 PM 38.6303 -87.2458 151° Southeast 447 514 31,000  Level Indianapolis Center
Tue 02:26:53 PM 38.5567 -87.1233 128° Southeast 447 514 31,000  Level Indianapolis Center
Tue 02:27:55 PM 38.5606 -86.9597 88° East 452 520 31,000  Level Indianapolis Center
Tue 02:28:56 PM 38.5686 -86.7942 86° East 459 528 31,000  Level Indianapolis Center
Tue 02:29:58 PM 38.5756 -86.6289 87° East 461 531 31,000  Level Indianapolis Center
Tue 02:31:00 PM 38.5822 -86.4644 87° East 460 529 31,000  Level Indianapolis Center
Tue 02:32:02 PM 38.5892 -86.3003 87° East 461 531 31,000  Level Indianapolis Center
Tue 02:33:04 PM 38.5961 -86.1028 87° East 461 531 31,000  Level Indianapolis Center
Tue 02:34:05 PM 38.6031 -85.9344 87° East 471 542 31,000  Level Indianapolis Center
Tue 02:35:07 PM 38.6106 -85.7614 87° East 482 555 31,000  Level Indianapolis Center
Tue 02:36:09 PM 38.6164 -85.5836 88° East 495 570 31,000  Level Indianapolis Center
Tue 02:37:11 PM 38.6211 -85.4078 88° East 495 570 31,000  Level Indianapolis Center
Tue 02:38:13 PM 38.6267 -85.2300 88° East 498 573 31,000  Level Indianapolis Center
Tue 02:39:14 PM 38.6325 -85.0467 88° East 493 567 31,000  Level Indianapolis Center
Tue 02:40:16 PM 38.6361 -84.8714 88° East 492 566 31,000  Level Indianapolis Center
Tue 02:41:18 PM 38.6411 -84.6972 88° East 490 564 31,000  Level Indianapolis Center
Tue 02:42:20 PM 38.6461 -84.4942 88° East 489 563 31,000  Level Indianapolis Center
Tue 02:43:22 PM 38.6486 -84.3428 89° East 488 562 31,000  Level Indianapolis Center
Tue 02:44:24 PM 38.6328 -84.1492 96° East 483 556 31,000  Level Indianapolis Center
Tue 02:45:25 PM 38.6147 -83.9761 98° East 487 560 31,000  Level Indianapolis Center
Tue 02:46:27 PM 38.5925 -83.8047 99° East 487 560 31,000  Level Indianapolis Center
Tue 02:47:29 PM 38.5136 -83.6700 127° Southeast 480 552 31,000  Level Indianapolis Center
Tue 02:48:31 PM 38.3733 -83.5844 154° Southeast 475 547 31,000  Level Indianapolis Center
Tue 02:49:33 PM 38.2717 -83.4828 142° Southeast 473 544 31,000  Level Indianapolis Center
Tue 02:50:34 PM 38.2628 -83.3094 94° East 484 557 31,000  Level Indianapolis Center
Tue 02:51:36 PM 38.2731 -83.1386 86° East 482 555 31,000  Level Indianapolis Center
Tue 02:52:38 PM 38.2836 -82.9686 85° East 481 554 31,000  Level Indianapolis Center
Tue 02:53:40 PM 38.2936 -82.7978 86° East 481 554 31,000  Level Indianapolis Center
Tue 02:54:41 PM 38.3031 -82.6283 86° East 479 551 31,000  Level Indianapolis Center
Tue 02:55:43 PM 38.3125 -82.4589 86° East 479 551 31,000  Level Indianapolis Center
Tue 02:56:45 PM 38.3228 -82.2894 86° East 481 554 31,000  Level Indianapolis Center
Tue 02:57:47 PM 38.3336 -82.0903 86° East 472 543 31,000  Level Indianapolis Center
Tue 02:58:49 PM 38.3425 -81.9281 86° East 464 534 31,000  Level Indianapolis Center
Tue 02:59:51 PM 38.3481 -81.7644 87° East 466 536 31,000  Level Indianapolis Center
Tue 03:00:53 PM 38.3439 -81.6006 92° East 469 540 31,000  Level Indianapolis Center
Tue 03:01:55 PM 38.3381 -81.4361 93° East 470 541 31,000  Level Indianapolis Center
Tue 03:02:57 PM 38.3328 -81.2417 92° East 466 536 31,000  Level Indianapolis Center
Tue 03:03:51 PM 38.3272 -81.1211 93° East 464 534 31,000  Level Washington Center
Tue 03:04:51 PM 38.3203 -80.9539 93° East 464 534 31,000  Level Washington Center
Tue 03:05:49 PM 38.3158 -80.7708 92° East 469 540 31,000  Level Washington Center
Tue 03:06:49 PM 38.3083 -80.6061 93° East 469 540 31,000  Level Washington Center
Tue 03:07:49 PM 38.3089 -80.4422 90° East 464 534 31,000  Level Washington Center
Tue 03:08:50 PM 38.3339 -80.2797 79° East 459 528 31,000 -148 Level Washington Center
Tue 03:09:51 PM 38.3625 -80.1358 76° East 466 536 30,700 -639 Descending Washington Center
Tue 03:10:52 PM 38.3975 -79.9817 74° East 461 531 29,700 -1,220 Descending Washington Center
Tue 03:11:49 PM 38.4319 -79.8325 74° East 449 517 28,300 -1,475 Descending Washington Center
Tue 03:12:50 PM 38.4661 -79.6886 73° East 432 497 26,800 -1,623 Descending Washington Center
Tue 03:13:51 PM 38.5028 -79.5342 73° East 413 475 25,000 -1,488 Descending Washington Center
Tue 03:14:51 PM 38.5322 -79.3978 75° East 408 470 23,800 -1,350 Descending Washington Center
Tue 03:15:51 PM 38.5550 -79.2608 78° East 402 463 22,300 -1,475 Descending Washington Center
Tue 03:16:49 PM 38.5761 -79.1211 79° East 402 463 20,900 -1,563 Descending Washington Center
Tue 03:17:50 PM 38.5986 -78.9867 78° East 391 450 19,200 -1,835 Descending Washington Center
Tue 03:18:50 PM 38.6211 -78.8547 78° East 391 450 17,200 -1,950 Descending Washington Center
Tue 03:19:50 PM 38.6472 -78.7283 75° East 379 436 15,300 -1,785 Descending Washington Center
Tue 03:20:51 PM 38.6753 -78.6125 73° East 359 413 13,600 -1,714 Descending Washington Center
Tue 03:21:49 PM 38.7033 -78.4967 73° East 346 398 11,900 -1,261 Descending Washington Center
Tue 03:22:50 PM 38.7286 -78.3886 73° East 324 373 11,100 -836 Descending Washington Center
Tue 03:23:51 PM 38.7806 -78.3106 49° Northeast 289 333 10,200 -942 Descending Washington Center
Tue 03:24:51 PM 38.8464 -78.2517 35° Northeast 282 325 9,200 -1,000 Descending Washington Center
Tue 03:25:51 PM 38.9083 -78.1900 38° Northeast 277 319 8,200 -756 Descending Washington Center
Tue 03:26:50 PM 38.9597 -78.1303 42° Northeast 270 311 7,700 -600 Descending Washington Center
Tue 03:27:51 PM 38.9964 -78.0594 56° Northeast 249 287 7,000 -353 Descending Washington Center
Tue 03:28:49 PM 38.9897 -77.9764 96° East 215 247 7,000  Level Washington Center
Tue 03:29:49 PM 38.9831 -77.9014 97° East 215 247 7,000  Level Washington Center
Tue 03:30:50 PM 38.9722 -77.8131 99° East 226 260 7,000 -359 Level Washington Center
Tue 03:32:36 PM 38.9500 -77.6667 101° East 226 260 6,000 -361 Descending Potomac TRACON
Tue 03:33:36 PM 38.9833 -77.6000 57° Northeast 243 280 6,000  Level Potomac TRACON
Tue 03:34:31 PM 39.0500 -77.5667 21° North 245 282 6,000  Level Potomac TRACON
Tue 03:35:31 PM 39.1167 -77.5667 360° North 246 283 6,000  Level Potomac TRACON
Tue 03:36:32 PM 39.1833 -77.5667 360° North 246 283 6,000  Level Potomac TRACON
Tue 03:37:32 PM 39.2167 -77.5333 38° Northeast 237 273 6,000 -150 Level Potomac TRACON
Tue 03:38:32 PM 39.1833 -77.4833 131° Southeast 183 211 5,700 -800 Descending Potomac TRACON
Tue 03:39:32 PM 39.1500 -77.4500 142° Southeast 181 208 4,400 -1,388 Descending Potomac TRACON
Tue 03:40:33 PM 39.1000 -77.4500 180° South 178 205 2,900 -1,289 Descending Potomac TRACON
Tue 03:41:33 PM 39.0500 -77.4500 180° South 174 200 1,800 -1,100 Descending Potomac TRACON

Login

Don't have an account? Register now (free) for customized features, flight alerts, and more!